< < Back
Terminal Aerodrome Forecast


Current Version              Previous Versions:   1  2  3  4  5  6  7  8  9  

Terminal Aerodrome Forecast

308
FTUS44 KHUN 061141
TAFHSV
TAF
KHSV 061141Z 0612/0712 VRB03KT P6SM FEW015 SCT025 SCT250
     FM061400 25007KT P6SM SCT035 BKN050
     FM070100 20005KT P6SM SCT030
     FM070600 20003KT P6SM FEW015 SCT030 BKN090=



Latest METAR

694
SAUS80 KWBC 062000
MTRHSV
METAR KHSV 061953Z VRB03KT 10SM FEW039 31/20 A3011 RMK AO2 SLP188
T03110200


USA.gov is the U.S. government's official web portal to all federal, state and local government web resources and services.